sensor_id;sensor_type;location;lat;lon;timestamp;temperature;humidity
12438;DHT22;6283;51.330;12.374;2023-07-29T00:01:44;20.20;1.00
12438;DHT22;6283;51.330;12.374;2023-07-29T00:04:12;20.20;1.00
12438;DHT22;6283;51.330;12.374;2023-07-29T00:06:37;20.20;1.00
12438;DHT22;6283;51.330;12.374;2023-07-29T00:09:03;20.20;1.00
12438;DHT22;6283;51.330;12.374;2023-07-29T00:11:29;20.20;1.00
12438;DHT22;6283;51.330;12.374;2023-07-29T00:13:55;20.20;1.00
12438;DHT22;6283;51.330;12.374;2023-07-29T00:16:21;20.20;1.00
12438;DHT22;6283;51.330;12.374;2023-07-29T00:18:48;20.20;1.00
12438;DHT22;6283;51.330;12.374;2023-07-29T00:21:14;20.20;1.00
12438;DHT22;6283;51.330;12.374;2023-07-29T00:23:39;20.10;1.00
12438;DHT22;6283;51.330;12.374;2023-07-29T00:26:05;20.10;1.00
12438;DHT22;6283;51.330;12.374;2023-07-29T00:28:31;20.10;1.00
12438;DHT22;6283;51.330;12.374;2023-07-29T00:30:56;20.10;1.00
12438;DHT22;6283;51.330;12.374;2023-07-29T00:33:22;20.10;1.00
12438;DHT22;6283;51.330;12.374;2023-07-29T00:35:48;20.10;1.00
12438;DHT22;6283;51.330;12.374;2023-07-29T00:38:13;20.10;1.00
12438;DHT22;6283;51.330;12.374;2023-07-29T00:40:39;20.10;1.00
12438;DHT22;6283;51.330;12.374;2023-07-29T00:43:05;20.10;1.00
12438;DHT22;6283;51.330;12.374;2023-07-29T00:45:32;20.10;1.00
12438;DHT22;6283;51.330;12.374;2023-07-29T00:47:59;20.10;1.00
12438;DHT22;6283;51.330;12.374;2023-07-29T00:50:25;20.10;1.00
12438;DHT22;6283;51.330;12.374;2023-07-29T00:52:53;20.00;1.00
12438;DHT22;6283;51.330;12.374;2023-07-29T00:55:19;20.00;1.00
12438;DHT22;6283;51.330;12.374;2023-07-29T00:57:45;20.00;1.00
12438;DHT22;6283;51.330;12.374;2023-07-29T01:00:14;20.00;1.00
12438;DHT22;6283;51.330;12.374;2023-07-29T01:02:42;20.00;1.00
12438;DHT22;6283;51.330;12.374;2023-07-29T01:05:08;20.00;1.00
12438;DHT22;6283;51.330;12.374;2023-07-29T01:13:56;19.90;1.00
12438;DHT22;6283;51.330;12.374;2023-07-29T01:16:30;19.90;1.00
12438;DHT22;6283;51.330;12.374;2023-07-29T01:18:58;19.80;1.00
12438;DHT22;6283;51.330;12.374;2023-07-29T01:21:30;19.80;1.00
12438;DHT22;6283;51.330;12.374;2023-07-29T01:23:59;19.80;1.00
12438;DHT22;6283;51.330;12.374;2023-07-29T01:26:25;19.70;1.00
12438;DHT22;6283;51.330;12.374;2023-07-29T01:28:51;19.70;5.70
12438;DHT22;6283;51.330;12.374;2023-07-29T01:31:27;19.70;32.80
12438;DHT22;6283;51.330;12.374;2023-07-29T01:34:32;19.70;81.50
12438;DHT22;6283;51.330;12.374;2023-07-29T01:37:01;19.60;99.90
12438;DHT22;6283;51.330;12.374;2023-07-29T01:39:29;19.60;99.90
12438;DHT22;6283;51.330;12.374;2023-07-29T01:41:57;19.60;99.90
12438;DHT22;6283;51.330;12.374;2023-07-29T01:44:23;19.60;99.90
12438;DHT22;6283;51.330;12.374;2023-07-29T01:46:49;19.60;99.90
12438;DHT22;6283;51.330;12.374;2023-07-29T01:49:15;19.60;99.90
12438;DHT22;6283;51.330;12.374;2023-07-29T01:51:41;19.60;99.90
12438;DHT22;6283;51.330;12.374;2023-07-29T01:54:06;19.60;99.90
12438;DHT22;6283;51.330;12.374;2023-07-29T01:56:32;19.60;99.90
12438;DHT22;6283;51.330;12.374;2023-07-29T01:58:57;19.60;99.90
12438;DHT22;6283;51.330;12.374;2023-07-29T02:01:23;19.60;99.90
12438;DHT22;6283;51.330;12.374;2023-07-29T02:03:49;19.60;99.90
12438;DHT22;6283;51.330;12.374;2023-07-29T02:06:20;19.60;99.90
12438;DHT22;6283;51.330;12.374;2023-07-29T02:08:46;19.60;99.90
12438;DHT22;6283;51.330;12.374;2023-07-29T02:11:11;19.60;99.90
12438;DHT22;6283;51.330;12.374;2023-07-29T02:13:37;19.60;99.90
12438;DHT22;6283;51.330;12.374;2023-07-29T02:16:03;19.60;99.90
12438;DHT22;6283;51.330;12.374;2023-07-29T02:18:29;19.60;99.90
12438;DHT22;6283;51.330;12.374;2023-07-29T02:20:54;19.60;99.90
12438;DHT22;6283;51.330;12.374;2023-07-29T02:23:20;19.60;99.90
12438;DHT22;6283;51.330;12.374;2023-07-29T02:25:45;19.60;99.90
12438;DHT22;6283;51.330;12.374;2023-07-29T02:28:11;19.60;99.90
12438;DHT22;6283;51.330;12.374;2023-07-29T02:30:40;19.60;99.90
12438;DHT22;6283;51.330;12.374;2023-07-29T02:33:06;19.60;99.90
12438;DHT22;6283;51.330;12.374;2023-07-29T02:35:31;19.60;99.90
12438;DHT22;6283;51.330;12.374;2023-07-29T02:37:57;19.60;99.90
12438;DHT22;6283;51.330;12.374;2023-07-29T02:40:23;19.50;99.90
12438;DHT22;6283;51.330;12.374;2023-07-29T02:42:50;19.50;99.90
12438;DHT22;6283;51.330;12.374;2023-07-29T02:45:16;19.40;1.40
12438;DHT22;6283;51.330;12.374;2023-07-29T02:47:41;19.40;1.00
12438;DHT22;6283;51.330;12.374;2023-07-29T02:50:07;19.40;1.00
12438;DHT22;6283;51.330;12.374;2023-07-29T02:52:33;19.40;1.00
12438;DHT22;6283;51.330;12.374;2023-07-29T02:54:58;19.30;1.00
12438;DHT22;6283;51.330;12.374;2023-07-29T02:57:24;19.30;1.00
12438;DHT22;6283;51.330;12.374;2023-07-29T02:59:50;19.30;1.00
12438;DHT22;6283;51.330;12.374;2023-07-29T03:02:15;19.20;1.00
12438;DHT22;6283;51.330;12.374;2023-07-29T03:04:41;19.20;1.00
12438;DHT22;6283;51.330;12.374;2023-07-29T03:07:07;19.20;1.00
12438;DHT22;6283;51.330;12.374;2023-07-29T03:09:32;19.10;1.00
12438;DHT22;6283;51.330;12.374;2023-07-29T03:11:58;19.10;1.00
12438;DHT22;6283;51.330;12.374;2023-07-29T03:14:24;19.10;14.10
12438;DHT22;6283;51.330;12.374;2023-07-29T03:16:50;19.00;83.90
12438;DHT22;6283;51.330;12.374;2023-07-29T03:19:16;19.00;99.90
12438;DHT22;6283;51.330;12.374;2023-07-29T03:21:42;19.00;99.90
12438;DHT22;6283;51.330;12.374;2023-07-29T03:24:07;18.90;99.90
12438;DHT22;6283;51.330;12.374;2023-07-29T03:26:33;18.90;99.90
12438;DHT22;6283;51.330;12.374;2023-07-29T03:28:58;18.90;99.90
12438;DHT22;6283;51.330;12.374;2023-07-29T03:31:24;18.90;99.90
12438;DHT22;6283;51.330;12.374;2023-07-29T03:33:50;18.90;99.90
12438;DHT22;6283;51.330;12.374;2023-07-29T03:36:15;18.90;1.00
12438;DHT22;6283;51.330;12.374;2023-07-29T03:38:41;18.90;1.00
12438;DHT22;6283;51.330;12.374;2023-07-29T03:41:08;18.80;1.00
12438;DHT22;6283;51.330;12.374;2023-07-29T03:43:34;18.80;1.00
12438;DHT22;6283;51.330;12.374;2023-07-29T03:46:00;18.90;1.00
12438;DHT22;6283;51.330;12.374;2023-07-29T03:48:26;18.80;1.00
12438;DHT22;6283;51.330;12.374;2023-07-29T03:50:51;18.80;1.00
12438;DHT22;6283;51.330;12.374;2023-07-29T03:53:17;18.80;1.00
12438;DHT22;6283;51.330;12.374;2023-07-29T03:55:43;18.80;1.00
12438;DHT22;6283;51.330;12.374;2023-07-29T03:58:09;18.80;7.10
12438;DHT22;6283;51.330;12.374;2023-07-29T04:00:34;18.80;25.10
12438;DHT22;6283;51.330;12.374;2023-07-29T04:03:00;18.80;60.70
12438;DHT22;6283;51.330;12.374;2023-07-29T04:05:26;18.80;56.80
12438;DHT22;6283;51.330;12.374;2023-07-29T04:07:51;18.80;99.90
12438;DHT22;6283;51.330;12.374;2023-07-29T04:10:19;18.80;99.90
12438;DHT22;6283;51.330;12.374;2023-07-29T04:12:45;18.80;99.90
12438;DHT22;6283;51.330;12.374;2023-07-29T04:15:10;18.80;1.00
12438;DHT22;6283;51.330;12.374;2023-07-29T04:17:36;18.80;1.00
12438;DHT22;6283;51.330;12.374;2023-07-29T04:20:02;18.80;99.90
12438;DHT22;6283;51.330;12.374;2023-07-29T04:22:28;18.80;99.90
12438;DHT22;6283;51.330;12.374;2023-07-29T04:24:53;18.80;99.90
12438;DHT22;6283;51.330;12.374;2023-07-29T04:27:19;18.80;99.90
12438;DHT22;6283;51.330;12.374;2023-07-29T04:29:45;18.90;99.90
12438;DHT22;6283;51.330;12.374;2023-07-29T04:32:10;18.90;99.90
12438;DHT22;6283;51.330;12.374;2023-07-29T04:34:36;18.90;82.60
12438;DHT22;6283;51.330;12.374;2023-07-29T04:37:02;18.90;1.00
12438;DHT22;6283;51.330;12.374;2023-07-29T04:39:27;19.00;1.00
12438;DHT22;6283;51.330;12.374;2023-07-29T04:41:53;19.00;1.00
12438;DHT22;6283;51.330;12.374;2023-07-29T04:44:18;19.00;1.00
12438;DHT22;6283;51.330;12.374;2023-07-29T04:46:44;19.10;99.90
12438;DHT22;6283;51.330;12.374;2023-07-29T04:49:09;19.10;99.90
12438;DHT22;6283;51.330;12.374;2023-07-29T04:51:35;19.20;99.90
12438;DHT22;6283;51.330;12.374;2023-07-29T04:54:02;19.20;1.00
12438;DHT22;6283;51.330;12.374;2023-07-29T04:56:28;19.30;1.00
12438;DHT22;6283;51.330;12.374;2023-07-29T04:58:53;19.30;1.00
12438;DHT22;6283;51.330;12.374;2023-07-29T05:01:19;19.40;1.00
12438;DHT22;6283;51.330;12.374;2023-07-29T05:03:45;19.40;1.00
12438;DHT22;6283;51.330;12.374;2023-07-29T05:06:11;19.50;99.90
12438;DHT22;6283;51.330;12.374;2023-07-29T05:08:36;19.50;99.90
12438;DHT22;6283;51.330;12.374;2023-07-29T05:11:02;19.60;99.90
12438;DHT22;6283;51.330;12.374;2023-07-29T05:13:28;19.60;38.30
12438;DHT22;6283;51.330;12.374;2023-07-29T05:15:53;19.70;1.00
12438;DHT22;6283;51.330;12.374;2023-07-29T05:18:19;19.80;1.00
12438;DHT22;6283;51.330;12.374;2023-07-29T05:20:46;19.80;1.00
12438;DHT22;6283;51.330;12.374;2023-07-29T05:23:12;19.90;1.00
12438;DHT22;6283;51.330;12.374;2023-07-29T05:25:38;19.90;1.00
12438;DHT22;6283;51.330;12.374;2023-07-29T05:28:04;20.00;1.00
12438;DHT22;6283;51.330;12.374;2023-07-29T05:30:30;20.10;1.00
12438;DHT22;6283;51.330;12.374;2023-07-29T05:33:03;20.10;99.90
12438;DHT22;6283;51.330;12.374;2023-07-29T05:35:30;20.10;99.90
12438;DHT22;6283;51.330;12.374;2023-07-29T05:37:55;20.20;99.90
12438;DHT22;6283;51.330;12.374;2023-07-29T05:40:21;20.20;99.90
12438;DHT22;6283;51.330;12.374;2023-07-29T05:42:46;20.30;99.90
12438;DHT22;6283;51.330;12.374;2023-07-29T05:45:13;20.40;99.90
12438;DHT22;6283;51.330;12.374;2023-07-29T05:47:39;20.40;99.90
12438;DHT22;6283;51.330;12.374;2023-07-29T05:50:05;20.40;99.90
12438;DHT22;6283;51.330;12.374;2023-07-29T05:52:34;20.50;99.90
12438;DHT22;6283;51.330;12.374;2023-07-29T05:55:00;20.50;99.90
12438;DHT22;6283;51.330;12.374;2023-07-29T05:57:26;20.50;84.90
12438;DHT22;6283;51.330;12.374;2023-07-29T05:59:52;20.60;71.10
12438;DHT22;6283;51.330;12.374;2023-07-29T06:02:17;20.70;43.20
12438;DHT22;6283;51.330;12.374;2023-07-29T06:04:43;20.80;4.50
12438;DHT22;6283;51.330;12.374;2023-07-29T06:07:09;20.90;1.00
12438;DHT22;6283;51.330;12.374;2023-07-29T06:09:34;21.00;1.00
12438;DHT22;6283;51.330;12.374;2023-07-29T06:12:00;21.00;1.00
12438;DHT22;6283;51.330;12.374;2023-07-29T06:14:26;21.10;1.00
12438;DHT22;6283;51.330;12.374;2023-07-29T06:16:51;21.20;3.70
12438;DHT22;6283;51.330;12.374;2023-07-29T06:19:19;21.20;1.00
12438;DHT22;6283;51.330;12.374;2023-07-29T06:21:45;21.30;1.00
12438;DHT22;6283;51.330;12.374;2023-07-29T06:24:10;21.40;1.00
12438;DHT22;6283;51.330;12.374;2023-07-29T06:26:36;21.40;1.00
12438;DHT22;6283;51.330;12.374;2023-07-29T06:29:02;21.50;1.00
12438;DHT22;6283;51.330;12.374;2023-07-29T06:31:27;21.50;1.00
12438;DHT22;6283;51.330;12.374;2023-07-29T06:33:53;21.50;1.00
12438;DHT22;6283;51.330;12.374;2023-07-29T06:36:20;21.60;1.00
12438;DHT22;6283;51.330;12.374;2023-07-29T06:38:45;21.60;1.00
12438;DHT22;6283;51.330;12.374;2023-07-29T06:41:11;21.70;1.00
12438;DHT22;6283;51.330;12.374;2023-07-29T06:43:36;21.70;1.00
12438;DHT22;6283;51.330;12.374;2023-07-29T06:46:02;21.80;93.80
12438;DHT22;6283;51.330;12.374;2023-07-29T06:48:28;21.80;99.90
12438;DHT22;6283;51.330;12.374;2023-07-29T06:50:53;21.90;1.00
12438;DHT22;6283;51.330;12.374;2023-07-29T06:53:20;21.90;1.00
12438;DHT22;6283;51.330;12.374;2023-07-29T06:55:46;22.00;32.70
12438;DHT22;6283;51.330;12.374;2023-07-29T06:58:12;22.00;1.00
12438;DHT22;6283;51.330;12.374;2023-07-29T07:00:40;22.00;1.00
12438;DHT22;6283;51.330;12.374;2023-07-29T07:03:06;22.10;1.00
12438;DHT22;6283;51.330;12.374;2023-07-29T07:05:31;22.30;1.00
12438;DHT22;6283;51.330;12.374;2023-07-29T07:07:57;22.40;1.00
12438;DHT22;6283;51.330;12.374;2023-07-29T07:10:22;22.60;7.80
12438;DHT22;6283;51.330;12.374;2023-07-29T07:12:48;22.80;1.00
12438;DHT22;6283;51.330;12.374;2023-07-29T07:15:17;23.00;1.00
12438;DHT22;6283;51.330;12.374;2023-07-29T07:17:43;23.10;1.00
12438;DHT22;6283;51.330;12.374;2023-07-29T07:20:09;23.20;1.00
12438;DHT22;6283;51.330;12.374;2023-07-29T07:22:35;23.30;1.00
12438;DHT22;6283;51.330;12.374;2023-07-29T07:25:00;23.30;1.00
12438;DHT22;6283;51.330;12.374;2023-07-29T07:27:26;23.40;1.00
12438;DHT22;6283;51.330;12.374;2023-07-29T07:29:51;23.40;1.00
12438;DHT22;6283;51.330;12.374;2023-07-29T07:32:17;23.40;1.00
12438;DHT22;6283;51.330;12.374;2023-07-29T07:34:43;23.40;1.00
12438;DHT22;6283;51.330;12.374;2023-07-29T07:37:08;23.40;1.00
12438;DHT22;6283;51.330;12.374;2023-07-29T07:39:34;23.40;1.00
12438;DHT22;6283;51.330;12.374;2023-07-29T07:42:00;23.40;1.00
12438;DHT22;6283;51.330;12.374;2023-07-29T07:44:25;23.40;1.00
12438;DHT22;6283;51.330;12.374;2023-07-29T07:46:52;23.40;1.00
12438;DHT22;6283;51.330;12.374;2023-07-29T07:49:19;23.40;1.00
12438;DHT22;6283;51.330;12.374;2023-07-29T07:51:45;23.40;1.00
12438;DHT22;6283;51.330;12.374;2023-07-29T07:54:10;23.40;1.00
12438;DHT22;6283;51.330;12.374;2023-07-29T07:56:36;23.40;1.00
12438;DHT22;6283;51.330;12.374;2023-07-29T07:59:01;23.40;1.00
12438;DHT22;6283;51.330;12.374;2023-07-29T08:01:27;23.40;99.90
12438;DHT22;6283;51.330;12.374;2023-07-29T08:03:53;23.40;99.90
12438;DHT22;6283;51.330;12.374;2023-07-29T08:06:18;23.50;1.00
12438;DHT22;6283;51.330;12.374;2023-07-29T08:08:44;23.50;99.90
12438;DHT22;6283;51.330;12.374;2023-07-29T08:11:10;23.60;99.90
12438;DHT22;6283;51.330;12.374;2023-07-29T08:13:36;23.50;99.90
12438;DHT22;6283;51.330;12.374;2023-07-29T08:16:01;23.50;99.90
12438;DHT22;6283;51.330;12.374;2023-07-29T08:18:27;23.50;99.90
12438;DHT22;6283;51.330;12.374;2023-07-29T08:20:54;23.50;99.90
12438;DHT22;6283;51.330;12.374;2023-07-29T08:23:30;23.50;99.90
12438;DHT22;6283;51.330;12.374;2023-07-29T08:26:00;23.50;99.90
12438;DHT22;6283;51.330;12.374;2023-07-29T08:28:38;23.60;99.90
12438;DHT22;6283;51.330;12.374;2023-07-29T08:31:04;23.60;99.90
12438;DHT22;6283;51.330;12.374;2023-07-29T08:33:31;23.70;99.90
12438;DHT22;6283;51.330;12.374;2023-07-29T08:35:59;23.70;99.90
12438;DHT22;6283;51.330;12.374;2023-07-29T08:38:25;23.70;99.90
12438;DHT22;6283;51.330;12.374;2023-07-29T08:40:58;23.80;99.90
12438;DHT22;6283;51.330;12.374;2023-07-29T08:43:29;23.90;99.90
12438;DHT22;6283;51.330;12.374;2023-07-29T08:45:57;24.00;99.90
12438;DHT22;6283;51.330;12.374;2023-07-29T08:48:36;24.20;99.90
12438;DHT22;6283;51.330;12.374;2023-07-29T08:51:05;24.30;99.90
12438;DHT22;6283;51.330;12.374;2023-07-29T08:53:33;24.30;99.90
12438;DHT22;6283;51.330;12.374;2023-07-29T08:55:59;24.30;99.90
12438;DHT22;6283;51.330;12.374;2023-07-29T08:58:25;24.30;99.90
12438;DHT22;6283;51.330;12.374;2023-07-29T09:00:51;24.40;99.90
12438;DHT22;6283;51.330;12.374;2023-07-29T09:03:17;24.50;99.90
12438;DHT22;6283;51.330;12.374;2023-07-29T09:05:42;24.50;99.90
12438;DHT22;6283;51.330;12.374;2023-07-29T09:08:08;24.60;99.90
12438;DHT22;6283;51.330;12.374;2023-07-29T09:10:36;24.80;99.90
12438;DHT22;6283;51.330;12.374;2023-07-29T09:13:03;24.90;99.90
12438;DHT22;6283;51.330;12.374;2023-07-29T09:15:30;25.00;99.90
12438;DHT22;6283;51.330;12.374;2023-07-29T09:17:57;25.10;99.90
12438;DHT22;6283;51.330;12.374;2023-07-29T09:20:29;25.10;99.90
12438;DHT22;6283;51.330;12.374;2023-07-29T09:22:58;25.00;99.90
12438;DHT22;6283;51.330;12.374;2023-07-29T09:25:28;25.10;99.90
12438;DHT22;6283;51.330;12.374;2023-07-29T09:28:01;25.00;99.90
12438;DHT22;6283;51.330;12.374;2023-07-29T09:30:27;24.90;99.90
12438;DHT22;6283;51.330;12.374;2023-07-29T09:32:56;24.90;99.90
12438;DHT22;6283;51.330;12.374;2023-07-29T09:35:23;24.90;99.90
12438;DHT22;6283;51.330;12.374;2023-07-29T09:37:50;24.80;99.90
12438;DHT22;6283;51.330;12.374;2023-07-29T09:40:18;24.80;99.90
12438;DHT22;6283;51.330;12.374;2023-07-29T09:42:51;24.80;99.90
12438;DHT22;6283;51.330;12.374;2023-07-29T09:45:36;24.80;99.90
12438;DHT22;6283;51.330;12.374;2023-07-29T09:48:03;24.70;1.00
12438;DHT22;6283;51.330;12.374;2023-07-29T09:50:30;24.60;1.00
12438;DHT22;6283;51.330;12.374;2023-07-29T09:52:56;24.50;99.90
12438;DHT22;6283;51.330;12.374;2023-07-29T09:55:25;24.50;99.90
12438;DHT22;6283;51.330;12.374;2023-07-29T09:58:00;24.50;99.90
12438;DHT22;6283;51.330;12.374;2023-07-29T10:00:31;24.50;99.90
12438;DHT22;6283;51.330;12.374;2023-07-29T10:02:58;24.50;99.90
12438;DHT22;6283;51.330;12.374;2023-07-29T10:05:26;24.50;1.00
12438;DHT22;6283;51.330;12.374;2023-07-29T10:07:54;24.60;34.50
12438;DHT22;6283;51.330;12.374;2023-07-29T10:10:20;24.70;31.20
12438;DHT22;6283;51.330;12.374;2023-07-29T10:12:46;24.80;75.60
12438;DHT22;6283;51.330;12.374;2023-07-29T10:15:12;24.90;1.00
12438;DHT22;6283;51.330;12.374;2023-07-29T10:17:39;24.90;1.00
12438;DHT22;6283;51.330;12.374;2023-07-29T10:20:07;24.90;1.00
12438;DHT22;6283;51.330;12.374;2023-07-29T10:22:41;25.00;1.00
12438;DHT22;6283;51.330;12.374;2023-07-29T10:25:10;25.00;1.00
12438;DHT22;6283;51.330;12.374;2023-07-29T10:30:17;24.90;1.00
12438;DHT22;6283;51.330;12.374;2023-07-29T10:32:44;24.80;1.00
12438;DHT22;6283;51.330;12.374;2023-07-29T10:35:13;24.80;1.00
12438;DHT22;6283;51.330;12.374;2023-07-29T10:37:40;24.80;99.90
12438;DHT22;6283;51.330;12.374;2023-07-29T10:40:10;24.70;99.90
12438;DHT22;6283;51.330;12.374;2023-07-29T10:42:38;24.70;99.90
12438;DHT22;6283;51.330;12.374;2023-07-29T10:45:24;24.70;99.90
12438;DHT22;6283;51.330;12.374;2023-07-29T10:47:49;24.70;99.90
12438;DHT22;6283;51.330;12.374;2023-07-29T10:50:20;24.60;99.90
12438;DHT22;6283;51.330;12.374;2023-07-29T10:52:52;24.60;99.90
12438;DHT22;6283;51.330;12.374;2023-07-29T10:55:38;24.60;99.90
12438;DHT22;6283;51.330;12.374;2023-07-29T10:58:12;24.70;99.90
12438;DHT22;6283;51.330;12.374;2023-07-29T11:00:38;24.70;99.90
12438;DHT22;6283;51.330;12.374;2023-07-29T11:03:08;24.80;99.90
12438;DHT22;6283;51.330;12.374;2023-07-29T11:05:46;24.90;99.90
12438;DHT22;6283;51.330;12.374;2023-07-29T11:08:29;25.00;99.90
12438;DHT22;6283;51.330;12.374;2023-07-29T11:13:28;25.30;99.90
12438;DHT22;6283;51.330;12.374;2023-07-29T11:15:55;25.30;99.90
12438;DHT22;6283;51.330;12.374;2023-07-29T11:18:22;25.30;99.90
12438;DHT22;6283;51.330;12.374;2023-07-29T11:20:47;25.30;99.90
12438;DHT22;6283;51.330;12.374;2023-07-29T11:23:14;25.40;99.90
12438;DHT22;6283;51.330;12.374;2023-07-29T11:25:40;25.40;99.90
12438;DHT22;6283;51.330;12.374;2023-07-29T11:28:06;25.40;99.90
12438;DHT22;6283;51.330;12.374;2023-07-29T11:30:31;25.40;99.90
12438;DHT22;6283;51.330;12.374;2023-07-29T11:32:59;25.40;99.90
12438;DHT22;6283;51.330;12.374;2023-07-29T11:35:25;25.40;99.90
12438;DHT22;6283;51.330;12.374;2023-07-29T11:37:53;25.40;99.90
12438;DHT22;6283;51.330;12.374;2023-07-29T11:40:21;25.40;99.90
12438;DHT22;6283;51.330;12.374;2023-07-29T13:43:05;27.90;1.00
12438;DHT22;6283;51.330;12.374;2023-07-29T13:45:30;27.90;1.00
12438;DHT22;6283;51.330;12.374;2023-07-29T13:47:57;28.10;1.00
12438;DHT22;6283;51.330;12.374;2023-07-29T13:50:22;28.40;1.00
12438;DHT22;6283;51.330;12.374;2023-07-29T13:52:48;28.80;1.00
12438;DHT22;6283;51.330;12.374;2023-07-29T13:55:14;29.10;1.00
12438;DHT22;6283;51.330;12.374;2023-07-29T13:57:40;29.20;1.00
12438;DHT22;6283;51.330;12.374;2023-07-29T14:00:07;29.40;1.00
12438;DHT22;6283;51.330;12.374;2023-07-29T14:02:33;29.50;1.00
12438;DHT22;6283;51.330;12.374;2023-07-29T14:04:59;29.50;1.00
12438;DHT22;6283;51.330;12.374;2023-07-29T14:07:25;29.10;1.00
12438;DHT22;6283;51.330;12.374;2023-07-29T14:09:50;28.70;1.00
12438;DHT22;6283;51.330;12.374;2023-07-29T14:12:16;28.60;1.00
12438;DHT22;6283;51.330;12.374;2023-07-29T14:14:42;28.70;1.00
12438;DHT22;6283;51.330;12.374;2023-07-29T14:17:08;28.70;1.00
12438;DHT22;6283;51.330;12.374;2023-07-29T14:19:35;28.70;1.00
12438;DHT22;6283;51.330;12.374;2023-07-29T14:22:01;28.70;1.00
12438;DHT22;6283;51.330;12.374;2023-07-29T14:24:27;28.70;1.00
12438;DHT22;6283;51.330;12.374;2023-07-29T14:26:52;28.70;1.00
12438;DHT22;6283;51.330;12.374;2023-07-29T14:29:18;28.50;1.00
12438;DHT22;6283;51.330;12.374;2023-07-29T14:31:43;28.20;1.00
12438;DHT22;6283;51.330;12.374;2023-07-29T14:34:09;27.90;1.00
12438;DHT22;6283;51.330;12.374;2023-07-29T14:36:35;27.60;1.00
12438;DHT22;6283;51.330;12.374;2023-07-29T14:39:01;27.20;1.00
12438;DHT22;6283;51.330;12.374;2023-07-29T14:41:27;26.90;1.00
12438;DHT22;6283;51.330;12.374;2023-07-29T14:44:09;26.60;1.00
12438;DHT22;6283;51.330;12.374;2023-07-29T14:46:37;26.40;1.00
12438;DHT22;6283;51.330;12.374;2023-07-29T14:49:03;25.90;1.00
12438;DHT22;6283;51.330;12.374;2023-07-29T14:51:28;25.30;1.00
12438;DHT22;6283;51.330;12.374;2023-07-29T14:53:54;24.90;1.00
12438;DHT22;6283;51.330;12.374;2023-07-29T14:56:19;24.60;1.00
12438;DHT22;6283;51.330;12.374;2023-07-29T14:58:45;24.20;1.00
12438;DHT22;6283;51.330;12.374;2023-07-29T15:01:11;24.00;1.00
12438;DHT22;6283;51.330;12.374;2023-07-29T15:03:36;23.70;1.00
12438;DHT22;6283;51.330;12.374;2023-07-29T15:06:02;23.50;1.00
12438;DHT22;6283;51.330;12.374;2023-07-29T15:08:28;23.10;1.00
12438;DHT22;6283;51.330;12.374;2023-07-29T15:10:56;22.70;1.00
12438;DHT22;6283;51.330;12.374;2023-07-29T15:13:30;22.30;1.00
12438;DHT22;6283;51.330;12.374;2023-07-29T15:15:56;21.80;1.00
12438;DHT22;6283;51.330;12.374;2023-07-29T15:18:22;21.40;1.00
12438;DHT22;6283;51.330;12.374;2023-07-29T15:20:48;21.20;1.00
12438;DHT22;6283;51.330;12.374;2023-07-29T15:23:13;20.90;1.00
12438;DHT22;6283;51.330;12.374;2023-07-29T15:25:39;20.70;1.00
12438;DHT22;6283;51.330;12.374;2023-07-29T15:28:05;20.50;1.00
12438;DHT22;6283;51.330;12.374;2023-07-29T15:30:30;20.20;1.00
12438;DHT22;6283;51.330;12.374;2023-07-29T15:32:57;19.90;1.00
12438;DHT22;6283;51.330;12.374;2023-07-29T15:35:23;19.70;99.90
12438;DHT22;6283;51.330;12.374;2023-07-29T15:38:04;19.50;1.00
12438;DHT22;6283;51.330;12.374;2023-07-29T15:40:29;19.40;1.00
12438;DHT22;6283;51.330;12.374;2023-07-29T15:42:55;19.40;1.00
12438;DHT22;6283;51.330;12.374;2023-07-29T15:45:21;19.50;1.00
12438;DHT22;6283;51.330;12.374;2023-07-29T15:47:46;19.50;1.00
12438;DHT22;6283;51.330;12.374;2023-07-29T15:50:12;19.60;99.90
12438;DHT22;6283;51.330;12.374;2023-07-29T15:52:37;19.60;19.30
12438;DHT22;6283;51.330;12.374;2023-07-29T15:55:08;19.70;1.00
12438;DHT22;6283;51.330;12.374;2023-07-29T15:57:33;19.80;1.00
12438;DHT22;6283;51.330;12.374;2023-07-29T15:59:59;19.90;1.00
12438;DHT22;6283;51.330;12.374;2023-07-29T16:02:26;20.00;1.00
12438;DHT22;6283;51.330;12.374;2023-07-29T16:04:52;20.20;1.00
12438;DHT22;6283;51.330;12.374;2023-07-29T16:07:17;20.40;1.00
12438;DHT22;6283;51.330;12.374;2023-07-29T16:09:43;20.60;1.00
12438;DHT22;6283;51.330;12.374;2023-07-29T16:12:08;20.80;1.00
12438;DHT22;6283;51.330;12.374;2023-07-29T16:14:34;20.90;1.00
12438;DHT22;6283;51.330;12.374;2023-07-29T16:17:00;21.00;1.00
12438;DHT22;6283;51.330;12.374;2023-07-29T16:19:27;21.10;1.00
12438;DHT22;6283;51.330;12.374;2023-07-29T16:21:55;21.20;1.00
12438;DHT22;6283;51.330;12.374;2023-07-29T16:24:21;21.30;1.00
12438;DHT22;6283;51.330;12.374;2023-07-29T16:26:47;21.40;1.00
12438;DHT22;6283;51.330;12.374;2023-07-29T16:29:12;21.70;1.00
12438;DHT22;6283;51.330;12.374;2023-07-29T16:31:38;22.20;1.00
12438;DHT22;6283;51.330;12.374;2023-07-29T16:34:04;22.90;99.90
12438;DHT22;6283;51.330;12.374;2023-07-29T16:36:30;23.30;99.90
12438;DHT22;6283;51.330;12.374;2023-07-29T16:38:56;23.40;99.90
12438;DHT22;6283;51.330;12.374;2023-07-29T16:41:21;23.20;99.90
12438;DHT22;6283;51.330;12.374;2023-07-29T16:43:47;22.80;99.90
12438;DHT22;6283;51.330;12.374;2023-07-29T16:46:13;22.50;99.90
12438;DHT22;6283;51.330;12.374;2023-07-29T16:48:38;22.20;99.90
12438;DHT22;6283;51.330;12.374;2023-07-29T16:51:04;22.10;99.90
12438;DHT22;6283;51.330;12.374;2023-07-29T16:53:30;21.90;99.90
12438;DHT22;6283;51.330;12.374;2023-07-29T16:55:56;21.80;99.90
12438;DHT22;6283;51.330;12.374;2023-07-29T16:58:22;21.90;99.90
12438;DHT22;6283;51.330;12.374;2023-07-29T17:00:47;22.40;99.90
12438;DHT22;6283;51.330;12.374;2023-07-29T17:03:13;23.00;99.90
12438;DHT22;6283;51.330;12.374;2023-07-29T17:05:39;23.70;99.90
12438;DHT22;6283;51.330;12.374;2023-07-29T17:08:05;24.30;99.90
12438;DHT22;6283;51.330;12.374;2023-07-29T17:10:31;24.40;99.90
12438;DHT22;6283;51.330;12.374;2023-07-29T17:12:56;24.30;99.90
12438;DHT22;6283;51.330;12.374;2023-07-29T17:15:22;24.00;99.90
12438;DHT22;6283;51.330;12.374;2023-07-29T17:17:48;23.70;99.90
12438;DHT22;6283;51.330;12.374;2023-07-29T17:20:14;23.20;99.90
12438;DHT22;6283;51.330;12.374;2023-07-29T17:22:40;22.90;99.90
12438;DHT22;6283;51.330;12.374;2023-07-29T17:25:06;22.60;99.90
12438;DHT22;6283;51.330;12.374;2023-07-29T17:27:32;22.40;99.90
12438;DHT22;6283;51.330;12.374;2023-07-29T17:29:57;22.30;99.90
12438;DHT22;6283;51.330;12.374;2023-07-29T17:32:23;22.10;99.90
12438;DHT22;6283;51.330;12.374;2023-07-29T17:34:48;21.90;99.90
12438;DHT22;6283;51.330;12.374;2023-07-29T17:37:14;21.80;99.90
12438;DHT22;6283;51.330;12.374;2023-07-29T17:39:40;21.60;99.90
12438;DHT22;6283;51.330;12.374;2023-07-29T17:42:07;21.50;99.90
12438;DHT22;6283;51.330;12.374;2023-07-29T17:44:34;21.40;99.90
12438;DHT22;6283;51.330;12.374;2023-07-29T17:47:00;21.30;99.90